Time;durP1;ratioP1;P1;durP2;ratioP2;P2;SDS_P1;SDS_P2;PMS_P1;PMS_P2;Temp;Humidity;BMP_temperature;BMP_pressure;BME280_temperature;BME280_humidity;BME280_pressure;Samples;Min_cycle;Max_cycle;Signal;HPM_P1;HPM_P2
2024/01/20 00:00:24;;;;;;;25.75;12.77;;;-0.10;99.90;;;0.01;72.98;101560.56;4983359;28;20138;-89
2024/01/20 00:02:52;;;;;;;25.77;12.63;;;-0.10;99.90;;;0.01;72.61;101560.56;4976557;28;20047;-88
2024/01/20 00:05:20;;;;;;;28.08;13.05;;;-0.10;99.90;;;0.06;72.72;101558.44;4977776;28;20039;-88
2024/01/20 00:07:49;;;;;;;24.77;12.20;;;-0.10;99.90;;;0.09;72.52;101552.94;4995539;28;20038;-88
2024/01/20 00:10:17;;;;;;;27.77;12.40;;;-0.10;99.90;;;0.05;72.53;101552.38;4995833;28;20057;-88
2024/01/20 00:12:45;;;;;;;25.20;12.02;;;-0.10;99.90;;;0.08;72.18;101557.34;4995294;28;20050;-89
2024/01/20 00:15:13;;;;;;;26.02;12.82;;;0.00;99.90;;;0.12;72.13;101540.44;4956885;29;20054;-88
2024/01/20 00:17:42;;;;;;;25.17;12.00;;;0.00;99.90;;;0.13;71.84;101546.50;4933380;28;20117;-88
2024/01/20 00:20:12;;;;;;;28.42;12.05;;;-0.10;99.90;;;0.08;71.68;101546.88;4976342;28;20049;-88
2024/01/20 00:22:40;;;;;;;26.98;13.32;;;-0.10;99.90;;;-0.16;71.88;101546.94;4987645;28;20050;-88
2024/01/20 00:25:10;;;;;;;28.27;13.23;;;-0.10;99.90;;;-0.14;72.07;101546.84;4975740;28;20047;-88
2024/01/20 00:27:38;;;;;;;24.77;12.60;;;-0.20;99.90;;;-0.12;72.28;101545.75;4981990;28;20076;-88
2024/01/20 00:30:07;;;;;;;24.73;13.27;;;-0.20;99.90;;;-0.33;72.44;101548.19;4978830;28;20545;-88
2024/01/20 00:32:36;;;;;;;27.02;12.25;;;-0.30;99.90;;;-0.41;72.96;101547.91;4994561;28;20421;-88
2024/01/20 00:35:04;;;;;;;25.98;12.02;;;-0.20;99.90;;;-0.34;73.22;101545.66;4994339;28;20042;-88
2024/01/20 00:37:32;;;;;;;28.02;12.18;;;-0.30;99.90;;;-0.26;72.86;101544.16;4971400;28;20529;-88
2024/01/20 00:40:00;;;;;;;23.55;11.57;;;-0.20;99.90;;;-0.20;72.67;101555.97;4959296;28;20039;-88
2024/01/20 00:42:29;;;;;;;24.08;12.50;;;-0.20;99.90;;;-0.17;72.47;101547.88;4969880;28;20100;-88
2024/01/20 00:44:57;;;;;;;22.52;11.55;;;-0.20;99.90;;;-0.22;72.45;101541.31;4994518;28;20437;-88
2024/01/20 00:47:25;;;;;;;27.48;12.75;;;-0.30;99.90;;;-0.24;72.77;101561.53;4993312;28;20050;-88
2024/01/20 00:49:52;;;;;;;26.33;12.05;;;-0.30;99.90;;;-0.17;72.70;101557.53;4977988;28;20051;-88
2024/01/20 00:52:20;;;;;;;26.30;12.27;;;-0.20;99.90;;;-0.19;72.46;101565.53;4970767;28;20096;-88
2024/01/20 00:54:48;;;;;;;25.42;11.90;;;-0.20;99.90;;;-0.16;72.47;101567.91;4962882;28;20056;-88
2024/01/20 00:57:16;;;;;;;26.10;11.90;;;-0.10;99.90;;;-0.16;72.37;101569.69;4995436;28;20046;-88
2024/01/20 00:59:45;;;;;;;25.05;11.90;;;-0.20;99.90;;;-0.10;72.36;101570.09;4987114;28;20525;-88
2024/01/20 01:02:15;;;;;;;24.70;12.40;;;-0.20;99.90;;;-0.16;72.33;101573.13;4982112;28;20070;-89
2024/01/20 01:04:42;;;;;;;28.98;12.40;;;-0.20;99.90;;;-0.16;72.03;101574.94;4982157;28;20506;-88
2024/01/20 01:07:14;;;;;;;25.23;11.63;;;-0.30;99.90;;;-0.12;72.04;101568.50;4977114;28;20047;-88
2024/01/20 01:09:42;;;;;;;25.27;11.43;;;-0.10;99.90;;;-0.12;72.05;101574.59;4985846;28;20074;-88
2024/01/20 01:12:17;;;;;;;24.83;12.07;;;-0.20;99.90;;;-0.09;71.79;101573.53;4975465;28;20070;-88
2024/01/20 01:14:46;;;;;;;25.00;12.32;;;-0.20;99.90;;;-0.30;71.93;101579.41;4974484;28;20046;-88
2024/01/20 01:17:16;;;;;;;27.05;13.27;;;-0.30;99.90;;;-0.34;72.06;101577.13;4974605;28;20038;-88
2024/01/20 01:19:44;;;;;;;26.40;12.27;;;-0.40;99.90;;;-0.29;72.36;101575.84;4993505;28;20046;-88
2024/01/20 01:22:12;;;;;;;27.67;12.82;;;-0.40;99.90;;;-0.46;72.55;101586.72;4994262;28;20296;-89
2024/01/20 01:24:39;;;;;;;28.42;13.45;;;-0.50;99.90;;;-0.41;72.73;101586.41;4971219;28;20418;-89
2024/01/20 01:27:08;;;;;;;28.60;12.60;;;-0.40;99.90;;;-0.32;72.69;101588.34;4956276;28;20054;-88
2024/01/20 01:29:35;;;;;;;32.13;14.95;;;-0.40;99.90;;;-0.31;72.28;101588.22;4960303;28;20051;-88
2024/01/20 01:32:05;;;;;;;26.73;12.88;;;-0.20;99.90;;;-0.24;72.19;101582.50;4992513;28;20138;-88
2024/01/20 01:34:33;;;;;;;27.80;13.13;;;-0.30;99.90;;;-0.16;72.05;101580.16;4977994;28;20422;-88
2024/01/20 01:37:01;;;;;;;25.92;13.43;;;-0.30;99.90;;;-0.18;71.52;101579.47;4963248;28;20594;-88
2024/01/20 01:39:28;;;;;;;28.02;13.80;;;-0.30;99.90;;;-0.32;71.73;101588.34;4974240;28;20058;-88
2024/01/20 01:41:56;;;;;;;27.95;12.95;;;-0.40;99.90;;;-0.26;72.14;101583.47;4958489;28;20134;-88
2024/01/20 01:44:24;;;;;;;27.40;13.52;;;-0.40;99.90;;;-0.26;71.66;101574.78;4958234;28;20047;-88
2024/01/20 01:46:52;;;;;;;26.08;13.13;;;-0.40;99.90;;;-0.51;71.88;101581.00;4974535;28;20051;-88
2024/01/20 01:49:22;;;;;;;29.77;13.75;;;-0.50;99.90;;;-0.45;72.15;101587.56;4957611;28;20059;-88
2024/01/20 01:51:51;;;;;;;27.58;13.15;;;-0.50;99.90;;;-0.48;71.89;101580.78;4975635;28;20050;-88
2024/01/20 01:54:22;;;;;;;28.25;12.27;;;-0.50;99.90;;;-0.47;71.99;101584.22;4973873;28;20057;-88
2024/01/20 01:56:52;;;;;;;;;;;-0.50;99.90;;;-0.39;71.90;101580.09;4974384;28;20042;-88
2024/01/20 01:59:22;;;;;;;25.38;12.30;;;-0.50;99.90;;;-0.34;71.60;101592.84;4958152;28;20299;-88
2024/01/20 02:01:50;;;;;;;27.48;12.82;;;-0.50;99.90;;;-0.36;70.65;101587.72;4973854;28;20042;-88
2024/01/20 02:04:18;;;;;;;28.60;13.13;;;-0.50;99.90;;;-0.41;71.30;101596.88;4975805;28;20494;-88
2024/01/20 02:06:47;;;;;;;24.40;12.93;;;-0.60;99.90;;;-0.52;71.04;101589.81;4973651;28;20514;-88
2024/01/20 02:09:15;;;;;;;26.02;12.50;;;-0.60;99.90;;;-0.52;71.08;101592.44;4975276;28;20135;-88
2024/01/20 02:11:44;;;;;;;26.58;13.13;;;-0.60;99.90;;;-0.76;70.89;101595.03;4973931;28;20051;-88
2024/01/20 02:14:14;;;;;;;30.95;14.18;;;-0.70;99.90;;;-0.96;71.84;101599.06;4975518;28;20490;-88
2024/01/20 02:16:41;;;;;;;29.20;14.23;;;-0.80;99.90;;;-1.06;72.56;101600.66;4978065;28;20055;-88
2024/01/20 02:19:12;;;;;;;30.95;13.82;;;-1.00;99.90;;;-1.05;72.30;101605.78;4944894;28;20074;-88
2024/01/20 02:21:42;;;;;;;28.70;12.65;;;-0.90;99.90;;;-0.88;72.26;101608.97;4946059;28;20082;-88
2024/01/20 02:24:16;;;;;;;23.25;12.48;;;-0.90;99.90;;;-0.75;72.05;101615.03;4977510;28;20541;-88
2024/01/20 02:26:47;;;;;;;26.67;13.32;;;-0.80;99.90;;;-0.94;71.49;101610.25;4977523;28;20047;-88
2024/01/20 02:29:22;;;;;;;;;;;-0.90;99.90;;;-0.87;71.89;101613.31;4977872;28;20043;-88
2024/01/20 02:31:50;;;;;;;25.90;12.93;;;-0.90;99.90;;;-0.80;71.41;101619.75;4961588;28;19945;-88
2024/01/20 02:34:21;;;;;;;26.77;12.05;;;-0.90;99.90;;;-0.77;71.43;101619.56;4984563;28;20031;-88
2024/01/20 02:36:51;;;;;;;25.70;13.20;;;-0.80;99.90;;;-0.91;71.20;101617.91;4987269;28;20046;-88
2024/01/20 02:39:21;;;;;;;25.17;12.25;;;-0.90;99.90;;;-0.76;71.68;101618.59;4992155;28;20074;-88
2024/01/20 02:41:49;;;;;;;26.70;12.10;;;-0.70;99.90;;;-0.62;71.03;101618.44;4996784;28;20062;-88
2024/01/20 02:44:19;;;;;;;26.23;11.93;;;-0.70;99.90;;;-0.76;70.66;101623.00;4997402;28;20149;-88
2024/01/20 02:46:52;;;;;;;24.33;12.02;;;-0.80;99.90;;;-0.68;70.62;101626.75;4988905;28;20053;-88
2024/01/20 02:49:20;;;;;;;27.38;12.55;;;-0.80;99.90;;;-0.72;69.98;101622.69;4977946;28;20507;-88
2024/01/20 02:51:51;;;;;;;35.92;13.32;;;-0.80;99.90;;;-0.68;70.55;101632.00;4976641;28;20047;-88
2024/01/20 02:54:23;;;;;;;23.17;11.82;;;-0.80;99.90;;;-0.77;69.76;101632.66;4976760;28;20062;-88
2024/01/20 02:56:54;;;;;;;24.52;12.70;;;-0.90;99.90;;;-0.82;70.27;101632.13;4962450;28;20572;-88
2024/01/20 02:59:21;;;;;;;26.75;12.63;;;-0.70;99.90;;;-0.76;70.56;101639.56;4976782;28;20093;-88
2024/01/20 03:01:51;;;;;;;26.77;12.70;;;-0.90;99.90;;;-0.78;69.89;101641.47;4978375;28;20422;-88
2024/01/20 03:04:20;;;;;;;24.85;12.77;;;-0.90;99.90;;;-0.79;70.65;101647.63;4995102;28;20046;-88
2024/01/20 03:06:48;;;;;;;24.75;12.45;;;-0.90;99.90;;;-0.86;70.94;101631.50;4984560;28;20125;-88
2024/01/20 03:09:15;;;;;;;29.90;13.43;;;-0.90;99.90;;;-0.87;70.27;101624.59;4977023;28;20061;-88
2024/01/20 03:11:50;;;;;;;29.38;12.88;;;-1.00;99.90;;;-0.77;70.84;101627.41;4977762;28;20054;-88
2024/01/20 03:14:18;;;;;;;29.63;13.27;;;-0.90;99.90;;;-0.73;70.28;101625.38;4977048;28;20046;-88
2024/01/20 03:16:46;;;;;;;25.65;13.05;;;-0.90;99.90;;;-0.79;70.49;101624.03;4960673;28;20047;-88
2024/01/20 03:19:14;;;;;;;27.42;13.73;;;-0.90;99.90;;;-0.75;71.10;101624.66;4976928;28;20098;-88
2024/01/20 03:21:41;;;;;;;26.35;13.20;;;-0.90;99.90;;;-0.89;70.58;101623.03;4975685;28;20055;-88
2024/01/20 03:24:10;;;;;;;27.95;13.82;;;-1.00;99.90;;;-0.87;70.51;101626.38;4991809;28;20042;-88
2024/01/20 03:26:39;;;;;;;30.90;13.95;;;-1.00;99.90;;;-0.86;70.84;101630.69;4996399;28;20046;-88
2024/01/20 03:29:10;;;;;;;28.63;13.90;;;-0.90;99.90;;;-0.98;71.56;101624.50;4994487;28;20093;-88
2024/01/20 03:31:38;;;;;;;27.10;13.33;;;-1.00;99.90;;;-0.86;71.26;101628.88;4995562;28;20057;-88
2024/01/20 03:34:08;;;;;;;27.70;13.35;;;-1.00;99.90;;;-1.06;71.29;101624.22;4995766;28;20085;-88
2024/01/20 03:36:36;;;;;;;28.35;12.77;;;-0.80;99.90;;;-0.97;71.08;101630.59;4982708;28;20089;-88
2024/01/20 03:39:06;;;;;;;27.10;13.32;;;-0.90;99.90;;;-0.91;71.29;101635.41;4976307;28;20126;-88
2024/01/20 03:41:34;;;;;;;30.52;13.38;;;-0.90;99.90;;;-0.84;70.53;101647.09;4977546;28;20062;-89
2024/01/20 03:44:04;;;;;;;31.65;13.38;;;-1.00;99.90;;;-0.80;70.63;101633.69;4975778;28;20051;-88
2024/01/20 03:46:36;;;;;;;30.60;13.25;;;-0.90;99.90;;;-0.84;69.40;101628.78;4976886;28;20050;-88
2024/01/20 03:49:04;;;;;;;24.27;11.95;;;-0.90;99.90;;;-0.84;70.12;101627.00;4983676;28;20052;-88
2024/01/20 03:51:34;;;;;;;27.80;13.77;;;-1.00;99.90;;;-0.79;69.89;101631.91;4995111;28;20089;-88
2024/01/20 03:54:05;;;;;;;23.70;12.13;;;-0.90;99.90;;;-0.70;69.80;101625.19;4994764;28;20101;-88
2024/01/20 03:56:32;;;;;;;26.13;12.50;;;-0.80;99.90;;;-0.67;69.42;101628.41;4990911;28;20070;-88
2024/01/20 03:59:01;;;;;;;29.63;12.93;;;-0.80;99.90;;;-0.74;69.18;101629.78;4975563;28;20053;-88
2024/01/20 04:01:29;;;;;;;26.90;13.10;;;-0.90;99.90;;;-0.86;69.48;101631.50;4976479;28;20050;-88
2024/01/20 04:03:59;;;;;;;26.75;11.90;;;-1.00;99.90;;;-1.04;69.01;101625.78;4976849;28;20133;-88
2024/01/20 04:06:26;;;;;;;24.75;12.27;;;-1.10;99.90;;;-0.96;70.04;101622.63;4975455;28;20055;-88
2024/01/20 04:09:01;;;;;;;29.08;12.82;;;-1.10;99.90;;;-0.80;70.06;101630.22;4959746;28;20514;-88
2024/01/20 04:11:28;;;;;;;24.95;12.68;;;-1.00;99.90;;;-0.74;69.82;101637.66;4976495;28;20130;-88
2024/01/20 04:14:23;;;;;;;30.30;13.00;;;-0.90;99.90;;;-0.64;69.49;101643.06;4976388;28;20078;-88
2024/01/20 04:16:53;;;;;;;28.90;12.95;;;-0.90;99.90;;;-0.78;69.34;101646.69;4963456;28;20054;-88
2024/01/20 04:19:26;;;;;;;23.95;12.13;;;-1.00;99.90;;;-0.75;69.50;101653.47;4975302;28;20395;-88
2024/01/20 04:21:53;;;;;;;25.75;12.90;;;-1.00;99.90;;;-0.74;69.02;101653.34;4975894;28;20050;-88
2024/01/20 04:24:24;;;;;;;26.40;13.10;;;-1.00;99.90;;;-0.85;69.31;101656.75;4976008;28;20066;-88
2024/01/20 04:26:54;;;;;;;27.08;13.02;;;-1.00;99.90;;;-0.94;69.35;101654.78;4976659;28;20050;-88
2024/01/20 04:29:24;;;;;;;29.67;14.48;;;-1.10;99.90;;;-0.98;70.20;101669.00;4976610;28;20533;-88
2024/01/20 04:31:52;;;;;;;29.30;13.07;;;-1.00;99.90;;;-0.97;70.27;101678.56;4959158;28;20043;-88
2024/01/20 04:34:20;;;;;;;26.20;13.15;;;-1.10;99.90;;;-0.98;70.08;101689.94;4976564;28;20130;-88
2024/01/20 04:36:50;;;;;;;27.40;13.13;;;-1.10;99.90;;;-0.89;70.31;101691.94;4975833;28;20053;-88
2024/01/20 04:39:22;;;;;;;26.92;12.68;;;-1.00;99.90;;;-0.79;70.36;101689.50;4975603;28;20047;-88
2024/01/20 04:42:00;;;;;;;31.90;14.55;;;-1.10;99.90;;;-1.04;70.39;101695.63;4975015;28;20082;-88
2024/01/20 04:44:31;;;;;;;27.60;12.68;;;-1.20;99.90;;;-0.98;70.72;101682.09;4974932;28;20106;-88
2024/01/20 04:46:59;;;;;;;26.50;13.38;;;-1.10;99.90;;;-1.06;70.87;101685.25;4958586;28;20055;-88
2024/01/20 04:49:29;;;;;;;29.38;13.13;;;-1.10;99.90;;;-1.08;70.54;101691.53;4971436;28;20081;-88
2024/01/20 04:56:13;;;;;;;28.50;12.13;;;-1.20;99.90;;;-0.87;70.73;101695.31;4981753;28;20096;-88
2024/01/20 05:01:42;;;;;;;23.70;11.95;;;-1.00;99.90;;;-0.94;69.34;101693.22;5123602;23;20046;-87
2024/01/20 05:04:13;;;;;;;26.98;12.32;;;-1.00;99.90;;;-0.98;70.11;101689.94;5014879;28;20052;-88
2024/01/20 05:06:40;;;;;;;24.40;12.13;;;-1.10;99.90;;;-0.90;69.92;101698.13;4997968;28;20042;-87
2024/01/20 05:09:11;;;;;;;23.73;12.00;;;-1.00;99.90;;;-0.87;69.51;101694.47;5014999;28;20070;-87
2024/01/20 05:11:41;;;;;;;23.33;12.38;;;-1.00;99.90;;;-1.08;69.17;101697.59;4997607;28;20052;-88
2024/01/20 05:14:11;;;;;;;27.73;11.98;;;-1.10;99.90;;;-1.01;69.60;101711.13;4997606;28;20054;-87
2024/01/20 05:16:41;;;;;;;27.67;11.25;;;-1.10;99.90;;;-1.14;69.80;101718.97;4997584;28;20100;-87
2024/01/20 05:19:14;;;;;;;25.92;12.55;;;-1.20;99.90;;;-1.16;69.86;101710.41;4981245;28;20049;-88
2024/01/20 05:21:46;;;;;;;22.55;11.88;;;-1.20;99.90;;;-1.02;69.89;101722.56;5014940;28;20037;-87
2024/01/20 05:24:16;;;;;;;25.08;12.43;;;-1.20;99.90;;;-0.89;69.78;101727.75;4997183;28;20137;-88
2024/01/20 05:26:55;;;;;;;20.40;11.47;;;-1.10;99.90;;;-0.86;69.12;101723.16;4997883;28;20042;-87
2024/01/20 05:29:26;;;;;;;23.98;12.38;;;-0.90;99.90;;;-0.85;69.41;101722.22;4981581;28;20050;-87
2024/01/20 05:31:53;;;;;;;29.48;12.35;;;-1.10;99.90;;;-0.88;68.66;101722.44;5014985;28;20644;-87
2024/01/20 05:34:27;;;;;;;;;;;-1.40;99.90;;;-0.91;69.05;101716.56;4998641;28;20399;-87
2024/01/20 05:36:55;;;;;;;24.40;11.57;;;-1.10;99.90;;;-0.90;69.08;101710.38;5015107;28;19960;-88
2024/01/20 05:39:25;;;;;;;26.55;12.10;;;-1.20;99.90;;;-0.95;69.07;101715.94;5014790;28;20050;-87
2024/01/20 05:42:03;;;;;;;24.80;12.05;;;-1.20;99.90;;;-0.91;69.17;101720.03;4997678;28;20052;-87
2024/01/20 05:44:37;;;;;;;24.17;11.65;;;-1.10;99.90;;;-0.94;68.60;101719.38;4997563;28;20462;-87
2024/01/20 05:47:09;;;;;;;26.38;12.05;;;-1.20;99.90;;;-0.90;69.01;101723.47;4994989;28;20105;-88
2024/01/20 05:49:41;;;;;;;22.60;11.65;;;-1.20;99.90;;;-0.86;68.96;101717.09;5001051;28;20045;-87
2024/01/20 05:52:13;;;;;;;23.50;11.73;;;-1.10;99.90;;;-0.87;68.36;101723.28;5020281;28;20042;-88
2024/01/20 05:54:49;;;;;;;21.67;10.98;;;-1.10;99.90;;;-0.94;68.44;101729.88;5002943;28;20050;-88
2024/01/20 05:57:18;;;;;;;23.90;11.15;;;-1.20;99.90;;;-0.94;68.90;101725.47;5002103;28;20058;-87
2024/01/20 05:59:48;;;;;;;25.35;11.95;;;-1.20;99.90;;;-0.98;68.92;101728.38;5001770;28;20100;-88
2024/01/20 06:02:36;;;;;;;23.08;11.77;;;-1.20;99.90;;;-1.02;68.91;101733.03;4985357;28;20050;-88
2024/01/20 06:05:13;;;;;;;24.30;11.23;;;-1.20;99.90;;;-1.02;68.98;101729.53;5005203;28;20041;-87
2024/01/20 06:07:50;;;;;;;26.50;11.63;;;-1.20;99.90;;;-0.98;69.00;101738.88;5004295;28;20132;-88
2024/01/20 06:10:28;;;;;;;24.33;12.00;;;-1.20;99.90;;;-0.93;68.75;101742.84;5037065;28;20045;-88
2024/01/20 06:12:57;;;;;;;26.15;11.40;;;-1.10;99.90;;;-0.91;68.62;101740.13;5037781;28;20489;-88
2024/01/20 06:15:25;;;;;;;28.52;12.48;;;-1.10;99.90;;;-0.86;68.50;101745.91;5020639;28;20048;-88
2024/01/20 06:17:55;;;;;;;29.30;12.20;;;-1.30;99.90;;;-0.90;68.62;101752.28;5020446;28;20061;-88
2024/01/20 06:20:34;;;;;;;25.70;11.73;;;-1.20;99.90;;;-0.87;68.54;101757.31;5020383;28;20045;-88
2024/01/20 06:23:03;;;;;;;26.73;11.00;;;-1.20;99.90;;;-0.99;68.33;101764.22;5020427;28;20288;-88
2024/01/20 06:25:54;;;;;;;26.88;11.73;;;-1.20;99.90;;;-0.96;68.51;101757.94;5023718;28;20081;-87
2024/01/20 06:28:25;;;;;;;23.83;11.43;;;-1.20;99.90;;;-0.95;68.76;101765.69;5038352;28;20076;-87
2024/01/20 06:30:56;;;;;;;21.75;11.43;;;-1.20;99.90;;;-0.99;68.20;101768.63;5020045;28;20041;-88
2024/01/20 06:33:23;;;;;;;27.00;11.20;;;-1.20;99.90;;;-1.01;68.47;101768.72;5004867;28;20159;-87
2024/01/20 06:35:54;;;;;;;27.73;11.60;;;-1.30;99.90;;;-1.13;68.57;101762.53;5038102;28;20103;-88
2024/01/20 06:38:22;;;;;;;24.73;11.77;;;-1.30;99.90;;;-1.30;68.42;101744.50;5020985;28;20045;-88
2024/01/20 06:40:50;;;;;;;22.42;11.20;;;-1.40;99.90;;;-1.30;68.84;101752.38;5019842;28;20500;-87
2024/01/20 06:43:21;;;;;;;24.27;10.75;;;-1.50;99.90;;;-1.22;69.11;101751.84;4987509;28;20064;-88
2024/01/20 06:45:51;;;;;;;25.90;11.23;;;-1.40;99.90;;;-1.16;68.85;101754.91;5019606;28;20051;-88
2024/01/20 06:48:19;;;;;;;23.83;10.77;;;-1.20;99.90;;;-1.11;68.52;101760.66;5037924;28;20042;-87
2024/01/20 06:50:46;;;;;;;23.85;11.27;;;-1.40;99.90;;;-1.12;68.04;101764.22;5019573;28;20049;-85
2024/01/20 06:53:15;;;;;;;22.63;10.52;;;-1.30;99.90;;;-1.28;68.62;101760.94;5038090;28;20056;-87
2024/01/20 06:55:43;;;;;;;22.20;10.75;;;-1.40;99.90;;;-1.38;68.53;101767.72;5019851;28;20504;-89
2024/01/20 06:58:10;;;;;;;23.80;11.70;;;-1.40;99.90;;;-1.30;68.48;101765.44;5037853;28;20120;-89
2024/01/20 07:00:38;;;;;;;23.35;10.88;;;-1.40;99.90;;;-1.22;68.35;101763.16;5019746;28;20041;-87
2024/01/20 07:03:07;;;;;;;23.83;10.57;;;-1.40;99.90;;;-1.21;68.14;101766.63;5005232;28;20140;-87
2024/01/20 07:05:35;;;;;;;23.70;10.75;;;-1.40;99.90;;;-1.18;68.27;101769.84;5005705;28;20073;-85
2024/01/20 07:08:02;;;;;;;23.27;11.50;;;-1.30;99.90;;;-1.27;68.19;101770.47;5004549;28;20500;-84
2024/01/20 07:11:07;;;;;;;23.50;11.40;;;-1.50;99.90;;;-1.21;67.98;101766.63;5038592;28;20084;-85
2024/01/20 07:13:35;;;;;;;21.38;10.30;;;-1.40;99.90;;;-1.30;67.67;101773.31;5039898;28;20128;-83
2024/01/20 07:16:12;;;;;;;22.85;10.50;;;-1.50;99.90;;;-1.24;67.85;101774.66;5039217;28;20430;-84
2024/01/20 07:18:44;;;;;;;24.63;10.80;;;-1.40;99.90;;;-1.26;68.22;101777.41;5032736;28;20049;-85
2024/01/20 07:21:12;;;;;;;18.40;10.20;;;-1.40;99.90;;;-1.20;68.15;101776.16;5002203;28;20454;-85
2024/01/20 07:23:42;;;;;;;19.75;10.73;;;-1.40;99.90;;;-1.19;67.65;101786.50;5022892;28;20464;-86
2024/01/20 07:26:11;;;;;;;20.73;10.23;;;-1.40;99.90;;;-1.16;67.72;101788.09;5025426;28;20076;-85
2024/01/20 07:28:39;;;;;;;20.85;10.20;;;-1.40;99.90;;;-1.29;67.36;101785.44;5004616;28;20103;-85
2024/01/20 07:31:06;;;;;;;25.00;10.73;;;-1.40;99.90;;;-1.36;68.22;101778.94;5008750;28;20046;-85
2024/01/20 07:33:35;;;;;;;21.38;11.18;;;-1.50;99.90;;;-1.61;68.09;101783.19;5038349;28;20501;-85
2024/01/20 07:36:04;;;;;;;22.50;10.77;;;-1.60;99.90;;;-1.50;68.36;101792.09;5025598;28;20560;-85
2024/01/20 07:38:32;;;;;;;22.40;11.23;;;-1.60;99.90;;;-1.37;68.47;101795.56;4985767;28;20050;-84
2024/01/20 07:40:59;;;;;;;23.60;10.65;;;-1.50;99.90;;;-1.40;68.25;101795.78;5013909;28;20037;-87
2024/01/20 07:43:27;;;;;;;21.83;10.85;;;-1.50;99.90;;;-1.32;68.48;101799.56;5020134;28;20061;-87
2024/01/20 07:45:56;;;;;;;26.85;10.95;;;-1.50;99.90;;;-1.32;68.56;101794.34;4973027;28;20128;-89
2024/01/20 07:48:26;;;;;;;25.90;10.75;;;-1.50;99.90;;;-1.35;67.75;101784.06;5019340;28;20140;-87
2024/01/20 07:50:55;;;;;;;20.25;10.50;;;-1.50;99.90;;;-1.27;68.10;101783.53;5033395;28;20037;-88
2024/01/20 07:53:24;;;;;;;21.98;10.48;;;-1.50;99.90;;;-1.23;67.76;101797.28;5021530;28;20045;-88
2024/01/20 07:55:52;;;;;;;23.92;10.35;;;-1.40;99.90;;;-1.19;67.91;101801.38;5021415;28;20475;-87
2024/01/20 07:58:23;;;;;;;20.05;10.25;;;-1.40;99.90;;;-1.28;67.68;101808.03;5023078;28;20040;-88
2024/01/20 08:00:51;;;;;;;20.05;10.23;;;-1.40;99.90;;;-1.27;67.71;101811.50;4984241;28;20049;-87
2024/01/20 08:03:19;;;;;;;21.73;9.85;;;-1.40;99.90;;;-1.37;67.22;101801.63;5007272;28;20041;-87
2024/01/20 08:05:46;;;;;;;20.00;10.15;;;-1.30;99.90;;;-1.41;68.01;101815.88;4964844;28;20137;-88
2024/01/20 08:08:16;;;;;;;20.13;10.35;;;-1.50;99.90;;;-1.32;67.94;101807.44;4978781;28;20042;-87
2024/01/20 08:10:46;;;;;;;19.23;9.85;;;-1.40;99.90;;;-1.23;67.78;101823.44;4998156;28;20129;-87
2024/01/20 08:13:21;;;;;;;21.00;10.77;;;-1.40;99.90;;;-1.40;67.84;101829.78;4986204;28;20421;-87
2024/01/20 08:15:49;;;;;;;19.17;9.65;;;-1.50;99.90;;;-1.33;68.04;101837.13;5016463;28;20428;-86
2024/01/20 08:18:16;;;;;;;29.27;11.63;;;-1.40;99.90;;;-1.29;68.21;101835.16;5020501;28;20503;-87
2024/01/20 08:20:44;;;;;;;21.75;9.65;;;-1.30;99.90;;;-1.32;68.01;101832.72;5018351;28;20068;-86
2024/01/20 08:23:14;;;;;;;21.40;9.80;;;-1.40;99.90;;;-1.41;67.52;101835.97;5002773;28;20140;-87
2024/01/20 08:25:44;;;;;;;20.75;9.80;;;-1.40;99.90;;;-1.50;67.62;101837.41;5029294;28;20049;-87
2024/01/20 08:28:12;;;;;;;21.35;9.63;;;-1.50;99.90;;;-1.42;67.95;101839.50;5022144;28;20457;-86
2024/01/20 08:30:39;;;;;;;20.20;9.20;;;-1.40;99.90;;;-1.39;68.11;101841.94;5017711;28;20128;-87
2024/01/20 08:33:08;;;;;;;20.05;10.00;;;-1.40;99.90;;;-1.41;68.02;101836.81;4986279;28;20049;-84
2024/01/20 08:35:37;;;;;;;20.95;9.95;;;-1.40;99.90;;;-1.59;67.42;101832.75;5017440;28;20045;-87
2024/01/20 08:38:05;;;;;;;21.65;10.10;;;-1.50;99.90;;;-1.60;68.88;101834.53;5034327;28;20044;-88
2024/01/20 08:40:33;;;;;;;20.55;9.88;;;-1.50;99.90;;;-1.46;68.26;101824.97;5017171;28;20500;-87
2024/01/20 08:43:02;;;;;;;20.38;9.80;;;-1.40;99.90;;;-1.52;67.67;101830.56;5035149;28;20088;-88
2024/01/20 08:45:31;;;;;;;23.00;10.05;;;-1.40;99.90;;;-1.40;68.53;101832.41;5037582;28;20464;-88
2024/01/20 08:47:58;;;;;;;19.85;9.88;;;-1.40;99.90;;;-1.40;67.82;101827.19;5018609;28;20084;-90
2024/01/20 08:50:25;;;;;;;20.08;9.63;;;-1.30;99.90;;;-1.42;67.91;101823.81;5004989;28;20044;-87
2024/01/20 08:52:54;;;;;;;20.27;9.45;;;-1.30;99.90;;;-1.33;68.19;101833.69;5037322;28;20091;-86
2024/01/20 08:55:22;;;;;;;22.15;9.60;;;-1.30;99.90;;;-1.53;68.10;101831.53;5001209;28;20045;-86
2024/01/20 08:57:49;;;;;;;18.63;9.25;;;-1.30;99.90;;;-1.50;68.08;101829.56;5017764;28;20057;-87
2024/01/20 09:00:21;;;;;;;18.92;9.10;;;-1.40;99.90;;;-1.34;68.08;101837.25;5035364;28;20063;-87
2024/01/20 09:02:50;;;;;;;20.08;9.98;;;-1.30;99.90;;;-1.41;68.25;101841.22;5001040;28;20045;-88
2024/01/20 09:05:19;;;;;;;15.90;8.50;;;-1.30;99.90;;;-1.34;67.68;101842.47;5037747;28;20497;-84
2024/01/20 09:07:46;;;;;;;17.02;8.52;;;-1.20;99.90;;;-1.26;67.80;101834.97;4986346;28;20051;-85
2024/01/20 09:10:14;;;;;;;19.80;8.98;;;-1.20;99.90;;;-1.12;68.07;101842.75;5019085;28;20103;-84
2024/01/20 09:12:41;;;;;;;21.30;9.07;;;-1.10;99.90;;;-1.25;67.22;101836.63;5003527;28;20485;-84
2024/01/20 09:15:10;;;;;;;17.17;8.35;;;-1.10;99.90;;;-1.13;68.11;101838.44;5038641;28;20417;-85
2024/01/20 09:17:39;;;;;;;19.00;8.65;;;-1.00;99.90;;;-1.28;67.55;101836.81;5039048;28;20041;-86
2024/01/20 09:20:09;;;;;;;18.40;8.63;;;-1.10;99.90;;;-1.16;67.83;101835.19;5038994;28;20041;-86
2024/01/20 09:22:37;;;;;;;19.65;8.30;;;-1.00;99.90;;;-1.24;67.95;101834.84;4988898;28;20065;-84
2024/01/20 09:25:05;;;;;;;18.70;8.68;;;-1.10;99.90;;;-1.22;67.94;101838.19;5003544;28;20049;-85
2024/01/20 09:27:33;;;;;;;21.27;9.48;;;-1.00;99.90;;;-1.15;69.01;101834.25;5004530;28;20493;-88
2024/01/20 09:30:01;;;;;;;19.50;8.82;;;-0.90;99.90;;;-1.07;68.21;101839.81;5021341;28;20104;-85
2024/01/20 09:32:33;;;;;;;19.45;9.05;;;-0.90;99.90;;;-1.08;68.47;101830.28;5020922;28;20061;-85
2024/01/20 09:35:02;;;;;;;20.10;8.20;;;-0.90;99.90;;;-1.09;68.00;101832.06;5021611;28;20045;-85
2024/01/20 09:37:30;;;;;;;17.55;8.93;;;-0.80;99.90;;;-1.09;68.15;101847.75;5021681;28;20132;-86
2024/01/20 09:40:00;;;;;;;21.13;8.68;;;-0.80;99.90;;;-1.07;68.44;101845.06;5037584;28;20049;-85
2024/01/20 09:42:28;;;;;;;15.07;8.07;;;-0.80;99.90;;;-1.08;68.62;101859.91;5021286;28;20037;-84
2024/01/20 09:44:56;;;;;;;18.25;8.32;;;-0.80;99.90;;;-1.00;68.55;101856.78;5020747;28;20132;-84
2024/01/20 09:47:24;;;;;;;18.73;8.05;;;-0.70;99.90;;;-1.10;68.16;101851.31;4987669;28;20115;-84
2024/01/20 09:49:51;;;;;;;19.50;8.43;;;-0.70;99.90;;;-0.98;68.61;101861.91;5020704;28;20061;-84
2024/01/20 09:52:29;;;;;;;17.75;8.90;;;-0.70;99.90;;;-0.95;68.49;101867.78;5004380;28;20523;-84
2024/01/20 09:55:12;;;;;;;22.88;11.07;;;-0.60;99.90;;;-0.98;68.71;101870.59;5020411;28;20050;-83
2024/01/20 09:57:44;;;;;;;15.75;8.95;;;-0.60;99.90;;;-1.06;68.57;101873.75;5018673;28;20041;-87
2024/01/20 10:00:16;;;;;;;18.33;8.55;;;-0.50;99.90;;;-0.86;68.57;101879.44;5022178;28;20389;-85
2024/01/20 10:02:46;;;;;;;15.30;7.85;;;-0.50;99.90;;;-0.76;68.14;101877.06;5037168;28;20049;-85
2024/01/20 10:05:16;;;;;;;19.50;8.40;;;-0.40;99.90;;;-0.65;68.31;101880.63;5037754;28;20048;-85
2024/01/20 10:07:47;;;;;;;19.20;8.33;;;-0.30;99.90;;;-0.64;67.79;101882.28;5040417;28;20053;-85
2024/01/20 10:10:22;;;;;;;13.95;7.43;;;-0.20;99.90;;;-0.69;67.71;101886.16;5022465;28;20563;-85
2024/01/20 10:12:51;;;;;;;16.13;8.00;;;-0.30;99.90;;;-0.75;67.90;101882.19;5040560;28;20124;-85
2024/01/20 10:15:25;;;;;;;16.23;8.60;;;-0.20;99.90;;;-0.67;67.96;101885.13;5021108;28;20045;-84
2024/01/20 10:17:54;;;;;;;16.02;8.15;;;-0.30;99.90;;;-0.71;67.42;101878.41;5036708;28;20532;-85
2024/01/20 10:20:24;;;;;;;16.45;8.05;;;-0.20;99.90;;;-0.66;68.08;101881.56;5021891;28;20057;-90